createdAt,value
2023-05-16T00:02:05.653Z,13.65
2023-05-16T00:04:33.473Z,13.64
2023-05-16T00:07:01.135Z,13.59
2023-05-16T00:09:28.667Z,13.54
2023-05-16T00:11:56.452Z,13.50
2023-05-16T00:14:25.762Z,13.48
2023-05-16T00:16:54.959Z,13.44
2023-05-16T00:19:23.238Z,13.42
2023-05-16T00:21:51.061Z,13.40
2023-05-16T00:24:18.623Z,13.36
2023-05-16T00:26:46.587Z,13.34
2023-05-16T00:29:15.655Z,13.31
2023-05-16T00:31:43.316Z,13.28
2023-05-16T00:34:11.877Z,13.25
2023-05-16T00:36:39.559Z,13.23
2023-05-16T00:39:10.664Z,13.19
2023-05-16T00:41:38.696Z,13.14
2023-05-16T00:44:06.416Z,13.12
2023-05-16T00:46:34.369Z,13.11
2023-05-16T00:49:02.953Z,13.08
2023-05-16T00:51:30.911Z,13.06
2023-05-16T00:53:59.613Z,13.06
2023-05-16T00:56:27.334Z,13.04
2023-05-16T00:58:55.145Z,13.02
2023-05-16T01:01:25.393Z,13.00
2023-05-16T01:03:54.016Z,12.99
2023-05-16T01:06:21.630Z,12.98
2023-05-16T01:08:49.241Z,12.96
2023-05-16T01:11:27.697Z,12.97
2023-05-16T01:14:26.383Z,13.01
2023-05-16T01:17:26.858Z,13.01
2023-05-16T01:20:10.601Z,13.03
2023-05-16T01:22:48.152Z,13.05
2023-05-16T01:25:56.334Z,13.04
2023-05-16T01:28:25.614Z,13.01
2023-05-16T01:30:53.711Z,12.93
2023-05-16T01:33:21.531Z,12.86
2023-05-16T01:36:17.739Z,12.82
2023-05-16T01:39:36.075Z,12.82
2023-05-16T01:42:15.367Z,12.81
2023-05-16T01:44:57.534Z,12.82
2023-05-16T01:47:27.259Z,12.83
2023-05-16T01:50:12.372Z,12.85
2023-05-16T01:52:50.558Z,12.87
2023-05-16T01:55:38.646Z,12.86
2023-05-16T01:58:08.317Z,12.82
2023-05-16T02:00:36.247Z,12.77
2023-05-16T02:03:04.535Z,12.75
2023-05-16T02:05:32.934Z,12.74
2023-05-16T02:08:01.177Z,12.72
2023-05-16T02:10:29.004Z,12.74
2023-05-16T02:12:57.284Z,12.78
2023-05-16T02:15:25.321Z,12.80
2023-05-16T02:17:53.661Z,12.83
2023-05-16T02:20:21.409Z,12.87
2023-05-16T02:22:49.515Z,12.93
2023-05-16T02:25:17.174Z,12.95
2023-05-16T02:27:44.885Z,12.95
2023-05-16T02:30:13.287Z,12.95
2023-05-16T02:32:43.457Z,12.95
2023-05-16T02:35:11.815Z,12.95
2023-05-16T02:37:40.530Z,12.96
2023-05-16T02:40:09.727Z,12.97
2023-05-16T02:42:37.622Z,12.99
2023-05-16T02:45:06.357Z,12.98
2023-05-16T02:47:34.144Z,12.99
2023-05-16T02:50:03.192Z,13.02
2023-05-16T02:52:32.728Z,13.05
2023-05-16T02:55:16.108Z,13.09
2023-05-16T02:57:29.548Z,13.13
2023-05-16T02:59:57.974Z,13.16
2023-05-16T03:02:25.995Z,13.18
2023-05-16T03:04:53.977Z,13.20
2023-05-16T03:07:21.803Z,13.25
2023-05-16T03:09:49.600Z,13.27
2023-05-16T03:12:17.469Z,13.30
2023-05-16T03:14:45.339Z,13.31
2023-05-16T03:17:12.889Z,13.34
2023-05-16T03:19:40.601Z,13.37
2023-05-16T03:22:08.396Z,13.40
2023-05-16T03:24:35.874Z,13.42
2023-05-16T03:27:04.285Z,13.45
2023-05-16T03:29:31.830Z,13.49
2023-05-16T03:31:59.714Z,13.51
2023-05-16T03:34:27.638Z,13.56
2023-05-16T03:36:55.689Z,13.58
2023-05-16T03:39:23.396Z,13.60
2023-05-16T03:41:51.735Z,13.66
2023-05-16T03:44:19.416Z,13.72
2023-05-16T03:46:47.165Z,13.77
2023-05-16T03:49:14.636Z,13.81
2023-05-16T03:51:42.277Z,13.82
2023-05-16T03:54:09.864Z,13.88
2023-05-16T03:56:37.438Z,13.93
2023-05-16T03:59:05.795Z,13.97
2023-05-16T04:01:33.540Z,14.04
2023-05-16T04:04:01.253Z,14.11
2023-05-16T04:06:28.910Z,14.17
2023-05-16T04:08:57.149Z,14.25
2023-05-16T04:11:26.320Z,14.33
2023-05-16T04:13:54.232Z,14.40
2023-05-16T04:16:22.428Z,14.46
2023-05-16T04:18:58.823Z,14.51
2023-05-16T04:21:27.108Z,14.56
2023-05-16T04:23:54.917Z,14.59
2023-05-16T04:26:27.852Z,14.60
2023-05-16T04:28:54.415Z,14.62
2023-05-16T04:31:22.951Z,14.63
2023-05-16T04:33:50.660Z,14.66
2023-05-16T04:36:19.284Z,14.68
2023-05-16T04:38:47.367Z,14.72
2023-05-16T04:41:17.733Z,14.73
2023-05-16T04:43:48.106Z,14.74
2023-05-16T04:46:16.215Z,14.76
2023-05-16T04:48:53.032Z,14.79
2023-05-16T04:51:22.353Z,14.81
2023-05-16T04:53:51.469Z,14.85
2023-05-16T04:56:19.897Z,14.90
2023-05-16T04:58:47.664Z,14.96
2023-05-16T05:01:15.486Z,15.03
2023-05-16T05:03:43.069Z,15.09
2023-05-16T05:06:11.158Z,15.18
2023-05-16T05:08:39.282Z,15.32
2023-05-16T05:11:06.930Z,15.42
2023-05-16T05:13:34.609Z,15.53
2023-05-16T05:16:04.359Z,15.62
2023-05-16T05:18:32.304Z,15.70
2023-05-16T05:21:00.179Z,15.78
2023-05-16T05:23:28.100Z,15.83
2023-05-16T05:25:55.827Z,15.91
2023-05-16T05:28:23.545Z,15.98
2023-05-16T05:30:51.667Z,16.04
2023-05-16T05:33:19.396Z,16.09
2023-05-16T05:35:47.360Z,16.12
2023-05-16T05:38:15.755Z,16.17
2023-05-16T05:40:43.481Z,16.18
2023-05-16T05:43:11.724Z,16.16
2023-05-16T05:45:39.493Z,16.14
2023-05-16T05:48:07.807Z,16.15
2023-05-16T05:50:35.531Z,16.11
2023-05-16T05:53:03.420Z,16.10
2023-05-16T05:55:31.120Z,16.10
2023-05-16T05:57:58.969Z,16.12
2023-05-16T06:00:27.631Z,16.12
2023-05-16T06:02:56.253Z,16.16
2023-05-16T06:05:32.319Z,16.21
2023-05-16T06:08:01.847Z,16.26
2023-05-16T06:10:29.804Z,16.33
2023-05-16T06:12:57.486Z,16.37
2023-05-16T06:15:26.144Z,16.45
2023-05-16T06:17:54.335Z,16.55
2023-05-16T06:20:22.225Z,16.65
2023-05-16T06:22:50.239Z,16.74
2023-05-16T06:25:17.960Z,16.84
2023-05-16T06:27:45.725Z,16.94
2023-05-16T06:30:13.668Z,17.04
2023-05-16T06:32:41.839Z,17.14
2023-05-16T06:35:09.729Z,17.26
2023-05-16T06:37:37.599Z,17.38
2023-05-16T06:40:06.828Z,17.49
2023-05-16T06:42:34.757Z,17.59
2023-05-16T06:45:03.264Z,17.72
2023-05-16T06:47:35.697Z,17.86
2023-05-16T06:50:04.398Z,17.97
2023-05-16T06:52:32.230Z,18.11
2023-05-16T06:54:59.894Z,18.25
2023-05-16T06:57:28.758Z,18.37
2023-05-16T06:59:56.625Z,18.52
2023-05-16T07:02:24.182Z,18.67
2023-05-16T07:04:52.421Z,18.78
2023-05-16T07:07:20.094Z,18.86
2023-05-16T07:09:47.781Z,18.91
2023-05-16T07:12:15.512Z,18.96
2023-05-16T07:14:43.217Z,19.01
2023-05-16T07:17:11.284Z,19.11
2023-05-16T07:19:38.891Z,19.19
2023-05-16T07:22:06.476Z,19.27
2023-05-16T07:24:34.037Z,19.32
2023-05-16T07:27:01.724Z,19.38
2023-05-16T07:29:30.050Z,19.43
2023-05-16T07:31:57.623Z,19.49
2023-05-16T07:34:25.930Z,19.57
2023-05-16T07:36:53.729Z,19.61
2023-05-16T07:39:21.400Z,19.65
2023-05-16T07:41:52.031Z,19.70
2023-05-16T07:44:19.567Z,19.74
2023-05-16T07:46:47.521Z,19.78
2023-05-16T07:49:15.672Z,19.80
2023-05-16T07:51:43.398Z,19.83
2023-05-16T07:54:11.281Z,19.90
2023-05-16T07:56:39.016Z,19.94
2023-05-16T07:59:06.650Z,19.99
2023-05-16T08:01:34.528Z,20.06
2023-05-16T08:04:02.107Z,20.13
2023-05-16T08:06:30.787Z,20.21
2023-05-16T08:08:58.510Z,20.28
2023-05-16T08:11:26.331Z,20.35
2023-05-16T08:13:54.058Z,20.42
2023-05-16T08:16:21.748Z,20.49
2023-05-16T08:18:49.484Z,20.57
2023-05-16T08:21:17.148Z,20.58
2023-05-16T08:23:45.055Z,20.61
2023-05-16T08:26:12.866Z,20.60
2023-05-16T08:28:40.492Z,20.63
2023-05-16T08:31:08.022Z,20.62
2023-05-16T08:33:35.796Z,20.65
2023-05-16T08:36:04.129Z,20.69
2023-05-16T08:38:32.052Z,20.70
2023-05-16T08:40:59.886Z,20.75
2023-05-16T08:43:28.147Z,20.79
2023-05-16T08:45:56.307Z,20.85
2023-05-16T08:48:25.775Z,20.91
2023-05-16T08:50:53.568Z,20.94
2023-05-16T08:53:29.822Z,20.99
2023-05-16T08:55:58.856Z,21.03
2023-05-16T08:58:27.686Z,21.08
2023-05-16T09:00:57.017Z,21.14
2023-05-16T09:03:25.434Z,21.23
2023-05-16T09:05:53.289Z,21.31
2023-05-16T09:08:21.302Z,21.38
2023-05-16T09:10:49.233Z,21.43
2023-05-16T09:13:17.136Z,21.48
2023-05-16T09:15:45.133Z,21.54
2023-05-16T09:18:16.158Z,21.60
2023-05-16T09:20:46.603Z,21.67
2023-05-16T09:23:16.588Z,21.71
2023-05-16T09:25:44.574Z,21.78
2023-05-16T09:28:12.299Z,21.85
2023-05-16T09:30:41.742Z,21.92
2023-05-16T09:33:09.567Z,22.01
2023-05-16T09:35:44.017Z,22.12
2023-05-16T09:38:12.130Z,22.26
2023-05-16T09:40:41.648Z,22.39
2023-05-16T09:43:10.443Z,22.52
2023-05-16T09:45:38.367Z,22.66
2023-05-16T09:48:12.543Z,22.82
2023-05-16T09:50:42.434Z,22.94
2023-05-16T09:53:10.222Z,23.02
2023-05-16T09:55:37.726Z,23.16
2023-05-16T09:58:05.536Z,23.31
2023-05-16T10:00:34.620Z,23.47
2023-05-16T10:03:05.386Z,23.60
2023-05-16T10:05:32.712Z,23.64
2023-05-16T10:08:03.796Z,23.70
2023-05-16T10:10:34.376Z,23.74
2023-05-16T10:13:06.734Z,23.76
2023-05-16T10:15:38.392Z,23.74
2023-05-16T10:18:15.086Z,23.72
2023-05-16T10:20:48.663Z,23.74
2023-05-16T10:23:24.260Z,23.80
2023-05-16T10:25:56.272Z,23.87
2023-05-16T10:28:27.028Z,23.95
2023-05-16T10:30:55.772Z,24.04
2023-05-16T10:33:24.188Z,24.10
2023-05-16T10:35:52.381Z,24.13
2023-05-16T10:38:23.917Z,24.21
2023-05-16T10:41:16.378Z,24.33
2023-05-16T10:43:57.996Z,24.49
2023-05-16T10:46:30.777Z,24.55
2023-05-16T10:48:59.516Z,24.65
2023-05-16T10:51:36.638Z,24.84
2023-05-16T10:54:13.743Z,24.92
2023-05-16T10:56:42.699Z,25.07
2023-05-16T10:59:26.147Z,25.20
2023-05-16T11:01:58.325Z,25.36
2023-05-16T11:04:57.155Z,25.51
2023-05-16T11:07:38.841Z,25.61
2023-05-16T11:13:51.120Z,25.90
2023-05-16T11:16:29.862Z,25.93
2023-05-16T11:19:07.749Z,25.92
2023-05-16T11:22:17.138Z,26.02
2023-05-16T11:25:10.832Z,26.02
2023-05-16T11:27:45.194Z,26.08
2023-05-16T11:30:20.950Z,26.08
2023-05-16T11:32:55.450Z,26.14
2023-05-16T11:35:23.166Z,26.19
2023-05-16T11:37:54.006Z,26.23
2023-05-16T11:40:21.722Z,26.22
2023-05-16T11:42:49.576Z,26.22
2023-05-16T11:45:21.221Z,26.23
2023-05-16T11:47:49.840Z,26.33
2023-05-16T11:50:25.728Z,26.44
2023-05-16T11:52:56.571Z,26.44
2023-05-16T11:58:12.982Z,26.39
2023-05-16T12:00:50.175Z,26.41
2023-05-16T12:03:20.129Z,26.45
2023-05-16T12:05:56.599Z,26.49
2023-05-16T12:08:24.832Z,26.47
2023-05-16T12:10:53.855Z,26.46
2023-05-16T12:13:24.066Z,26.48
2023-05-16T12:15:56.649Z,26.42
2023-05-16T12:18:24.632Z,26.44
2023-05-16T12:20:55.536Z,26.46
2023-05-16T12:26:32.952Z,26.40
2023-05-16T12:29:03.526Z,26.32
2023-05-16T12:31:37.570Z,26.32
2023-05-16T12:34:05.666Z,26.20
2023-05-16T12:36:34.525Z,26.10
2023-05-16T12:39:03.476Z,26.04
2023-05-16T12:41:32.028Z,25.92
2023-05-16T12:44:18.966Z,25.81
2023-05-16T12:46:50.973Z,25.71
2023-05-16T12:49:24.911Z,25.60
2023-05-16T12:51:55.606Z,25.51
2023-05-16T12:54:23.412Z,25.45
2023-05-16T12:56:51.350Z,25.39
2023-05-16T12:59:20.274Z,25.30
2023-05-16T13:01:48.313Z,25.27
2023-05-16T13:04:19.677Z,25.26
2023-05-16T13:06:57.676Z,25.26
2023-05-16T13:09:17.638Z,25.24
2023-05-16T13:11:45.704Z,25.20
2023-05-16T13:14:13.428Z,25.18
2023-05-16T13:16:41.202Z,25.14
2023-05-16T13:19:09.238Z,25.03
2023-05-16T13:21:37.115Z,24.93
2023-05-16T13:24:06.034Z,24.85
2023-05-16T13:26:34.504Z,24.84
2023-05-16T13:29:02.414Z,24.82
2023-05-16T13:31:30.277Z,24.75
2023-05-16T13:33:58.334Z,24.63
2023-05-16T13:36:26.169Z,24.54
2023-05-16T13:38:53.899Z,24.45
2023-05-16T13:41:21.702Z,24.38
2023-05-16T13:43:49.636Z,24.31
2023-05-16T13:46:17.464Z,24.24
2023-05-16T13:48:45.445Z,24.21
2023-05-16T13:51:14.740Z,24.21
2023-05-16T13:53:42.740Z,24.21
2023-05-16T13:56:10.605Z,24.19
2023-05-16T13:58:48.945Z,24.17
2023-05-16T14:01:08.183Z,24.17
2023-05-16T14:03:36.446Z,24.23
2023-05-16T14:06:04.301Z,24.33
2023-05-16T14:08:32.120Z,24.46
2023-05-16T14:11:00.067Z,24.55
2023-05-16T14:13:27.982Z,24.61
2023-05-16T14:15:55.667Z,24.66
2023-05-16T14:18:23.404Z,24.68
2023-05-16T14:20:50.941Z,24.66
2023-05-16T14:23:18.782Z,24.64
2023-05-16T14:25:46.586Z,24.61
2023-05-16T14:28:14.893Z,24.63
2023-05-16T14:30:42.628Z,24.65
2023-05-16T14:33:10.607Z,24.64
2023-05-16T14:35:40.553Z,24.64
2023-05-16T14:38:08.122Z,24.69
2023-05-16T14:40:35.836Z,24.67
2023-05-16T14:43:03.908Z,24.66
2023-05-16T14:45:31.462Z,24.64
2023-05-16T14:47:59.440Z,24.61
2023-05-16T14:50:29.428Z,24.58
2023-05-16T14:52:57.448Z,24.52
2023-05-16T14:55:25.550Z,24.46
2023-05-16T14:57:59.302Z,24.39
2023-05-16T15:00:25.558Z,24.33
2023-05-16T15:02:53.639Z,24.26
2023-05-16T15:05:21.686Z,24.19
2023-05-16T15:07:50.260Z,24.14
2023-05-16T15:10:17.924Z,24.09
2023-05-16T15:12:45.786Z,24.07
2023-05-16T15:15:21.852Z,24.03
2023-05-16T15:17:50.405Z,24.01
2023-05-16T15:20:19.871Z,24.01
2023-05-16T15:22:48.011Z,24.00
2023-05-16T15:25:15.993Z,24.00
2023-05-16T15:27:44.259Z,23.97
2023-05-16T15:30:12.337Z,23.94
2023-05-16T15:32:40.256Z,23.92
2023-05-16T15:35:08.476Z,23.90
2023-05-16T15:37:36.588Z,23.85
2023-05-16T15:40:05.509Z,23.79
2023-05-16T15:42:32.946Z,23.75
2023-05-16T15:45:00.792Z,23.67
2023-05-16T15:47:28.579Z,23.64
2023-05-16T15:49:56.229Z,23.60
2023-05-16T15:52:23.962Z,23.59
2023-05-16T15:54:51.725Z,23.56
2023-05-16T15:57:19.711Z,23.52
2023-05-16T15:59:47.357Z,23.51
2023-05-16T16:02:15.037Z,23.47
2023-05-16T16:04:43.009Z,23.43
2023-05-16T16:07:11.594Z,23.37
2023-05-16T16:09:39.846Z,23.31
2023-05-16T16:12:08.215Z,23.25
2023-05-16T16:14:35.934Z,23.17
2023-05-16T16:17:04.271Z,23.09
2023-05-16T16:19:34.941Z,23.06
2023-05-16T16:22:05.550Z,23.02
2023-05-16T16:24:34.486Z,22.97
2023-05-16T16:27:02.711Z,22.92
2023-05-16T16:29:30.376Z,22.87
2023-05-16T16:31:58.743Z,22.83
2023-05-16T16:34:26.997Z,22.79
2023-05-16T16:36:54.553Z,22.74
2023-05-16T16:39:22.337Z,22.69
2023-05-16T16:41:49.873Z,22.61
2023-05-16T16:44:19.404Z,22.52
2023-05-16T16:46:51.060Z,22.43
2023-05-16T16:49:20.989Z,22.33
2023-05-16T16:51:49.541Z,22.28
2023-05-16T16:54:40.380Z,22.22
2023-05-16T16:57:13.536Z,22.15
2023-05-16T16:59:41.768Z,22.07
2023-05-16T17:02:10.136Z,22.00
2023-05-16T17:04:38.895Z,21.93
2023-05-16T17:07:07.128Z,21.88
2023-05-16T17:09:40.592Z,21.80
2023-05-16T17:12:12.880Z,21.70
2023-05-16T17:14:43.236Z,21.59
2023-05-16T17:17:11.223Z,21.51
2023-05-16T17:19:40.169Z,21.43
2023-05-16T17:22:10.039Z,21.34
2023-05-16T17:24:39.935Z,21.21
2023-05-16T17:27:14.174Z,21.10
2023-05-16T17:30:01.733Z,21.03
2023-05-16T17:32:30.384Z,20.97
2023-05-16T17:35:03.555Z,20.90
2023-05-16T17:37:32.503Z,20.82
2023-05-16T17:40:02.314Z,20.76
2023-05-16T17:42:33.642Z,20.65
2023-05-16T17:45:05.355Z,20.58
2023-05-16T17:47:33.291Z,20.49
2023-05-16T17:50:01.959Z,20.40
2023-05-16T17:52:30.859Z,20.36
2023-05-16T17:55:03.584Z,20.31
2023-05-16T17:57:31.431Z,20.24
2023-05-16T17:59:59.489Z,20.15
2023-05-16T18:02:27.512Z,20.08
2023-05-16T18:04:55.273Z,20.03
2023-05-16T18:07:24.802Z,19.97
2023-05-16T18:09:53.724Z,19.91
2023-05-16T18:12:21.903Z,19.86
2023-05-16T18:14:53.551Z,19.76
2023-05-16T18:17:22.320Z,19.70
2023-05-16T18:19:55.187Z,19.64
2023-05-16T18:22:29.558Z,19.59
2023-05-16T18:24:57.428Z,19.57
2023-05-16T18:27:25.715Z,19.55
2023-05-16T18:29:57.538Z,19.53
2023-05-16T18:32:25.668Z,19.50
2023-05-16T18:34:53.250Z,19.50
2023-05-16T18:37:21.024Z,19.49
2023-05-16T18:39:48.984Z,19.46
2023-05-16T18:42:17.658Z,19.41
2023-05-16T18:44:46.166Z,19.37
2023-05-16T18:47:15.360Z,19.31
2023-05-16T18:49:43.114Z,19.30
2023-05-16T18:52:11.952Z,19.27
2023-05-16T18:54:39.700Z,19.27
2023-05-16T18:57:07.749Z,19.25
2023-05-16T18:59:36.978Z,19.23
2023-05-16T19:02:05.576Z,19.21
2023-05-16T19:04:36.479Z,19.18
2023-05-16T19:07:05.624Z,19.16
2023-05-16T19:09:34.247Z,19.15
2023-05-16T19:12:01.993Z,19.13
2023-05-16T19:14:29.581Z,19.14
2023-05-16T19:16:57.744Z,19.12
2023-05-16T19:19:25.572Z,19.13
2023-05-16T19:21:53.730Z,19.10
2023-05-16T19:24:21.921Z,19.07
2023-05-16T19:26:49.810Z,19.06
2023-05-16T19:29:18.496Z,19.04
2023-05-16T19:31:46.260Z,19.03
2023-05-16T19:34:14.054Z,19.01
2023-05-16T19:36:41.976Z,18.98
2023-05-16T19:39:10.241Z,18.95
2023-05-16T19:41:38.050Z,18.94
2023-05-16T19:44:06.009Z,18.93
2023-05-16T19:46:34.714Z,18.90
2023-05-16T19:49:04.896Z,18.88
2023-05-16T19:51:41.980Z,18.87
2023-05-16T19:54:06.517Z,18.83
2023-05-16T19:56:34.320Z,18.79
2023-05-16T19:59:02.507Z,18.77
2023-05-16T20:01:30.263Z,18.72
2023-05-16T20:04:00.062Z,18.70
2023-05-16T20:06:28.526Z,18.66
2023-05-16T20:08:56.748Z,18.63
2023-05-16T20:11:26.352Z,18.58
2023-05-16T20:13:55.221Z,18.55
2023-05-16T20:16:27.566Z,18.51
2023-05-16T20:18:56.019Z,18.49
2023-05-16T20:21:26.378Z,18.46
2023-05-16T20:23:55.189Z,18.44
2023-05-16T20:26:23.459Z,18.42
2023-05-16T20:28:51.179Z,18.42
2023-05-16T20:31:19.628Z,18.45
2023-05-16T20:33:47.650Z,18.52
2023-05-16T20:36:15.708Z,18.55
2023-05-16T20:38:45.903Z,18.59
2023-05-16T20:41:14.066Z,18.68
2023-05-16T20:43:49.247Z,18.74
2023-05-16T20:46:17.617Z,18.80
2023-05-16T20:48:45.741Z,18.83
2023-05-16T20:51:13.926Z,18.81
2023-05-16T20:53:42.201Z,18.77
2023-05-16T20:56:11.239Z,18.76
2023-05-16T20:58:43.579Z,18.77
2023-05-16T21:01:13.331Z,18.84
2023-05-16T21:03:45.441Z,18.89
2023-05-16T21:06:13.887Z,18.95
2023-05-16T21:08:48.762Z,19.00
2023-05-16T21:11:17.132Z,19.02
2023-05-16T21:13:45.391Z,19.01
2023-05-16T21:16:13.336Z,19.01
2023-05-16T21:18:41.409Z,18.99
2023-05-16T21:21:09.666Z,18.97
2023-05-16T21:23:38.871Z,18.96
2023-05-16T21:26:06.992Z,18.91
2023-05-16T21:28:42.663Z,18.87
2023-05-16T21:31:05.674Z,18.83
2023-05-16T21:33:33.605Z,18.81
2023-05-16T21:36:03.306Z,18.79
2023-05-16T21:38:31.643Z,18.78
2023-05-16T21:41:02.531Z,18.78
2023-05-16T21:43:31.505Z,18.78
2023-05-16T21:46:01.859Z,18.76
2023-05-16T21:48:30.213Z,18.75
2023-05-16T21:50:58.622Z,18.74
2023-05-16T21:53:26.722Z,18.74
2023-05-16T21:55:59.292Z,18.73
2023-05-16T21:58:28.830Z,18.73
2023-05-16T22:00:56.529Z,18.70
2023-05-16T22:03:24.301Z,18.61
2023-05-16T22:05:52.289Z,18.55
2023-05-16T22:08:20.098Z,18.46
2023-05-16T22:10:48.409Z,18.39
2023-05-16T22:13:16.300Z,18.34
2023-05-16T22:15:55.621Z,18.28
2023-05-16T22:18:16.218Z,18.22
2023-05-16T22:20:44.124Z,18.18
2023-05-16T22:23:12.155Z,18.14
2023-05-16T22:25:40.189Z,18.10
2023-05-16T22:28:07.893Z,18.06
2023-05-16T22:30:35.835Z,18.04
2023-05-16T22:33:04.069Z,18.01
2023-05-16T22:35:32.092Z,17.98
2023-05-16T22:38:00.162Z,17.95
2023-05-16T22:40:28.359Z,17.92
2023-05-16T22:42:56.269Z,17.87
2023-05-16T22:45:23.887Z,17.84
2023-05-16T22:47:51.833Z,17.81
2023-05-16T22:50:19.607Z,17.79
2023-05-16T22:52:47.404Z,17.76
2023-05-16T22:55:15.207Z,17.76
2023-05-16T22:57:43.982Z,17.74
2023-05-16T23:00:13.394Z,17.74
2023-05-16T23:02:44.526Z,17.71
2023-05-16T23:05:12.479Z,17.70
2023-05-16T23:07:40.495Z,17.68
2023-05-16T23:10:09.290Z,17.67
2023-05-16T23:12:37.738Z,17.65
2023-05-16T23:15:08.944Z,17.63
2023-05-16T23:17:40.912Z,17.61
2023-05-16T23:20:09.594Z,17.60
2023-05-16T23:22:37.210Z,17.58
2023-05-16T23:25:06.588Z,17.56
2023-05-16T23:27:34.448Z,17.53
2023-05-16T23:30:02.412Z,17.52
2023-05-16T23:32:30.489Z,17.49
2023-05-16T23:34:58.487Z,17.49
2023-05-16T23:37:26.349Z,17.46
2023-05-16T23:39:53.884Z,17.47
2023-05-16T23:42:21.476Z,17.47
2023-05-16T23:44:50.281Z,17.50
2023-05-16T23:47:18.060Z,17.49
2023-05-16T23:49:45.862Z,17.51
2023-05-16T23:52:13.589Z,17.51
2023-05-16T23:54:41.234Z,17.52
2023-05-16T23:57:10.295Z,17.53
2023-05-16T23:59:38.827Z,17.53
